createdAt,value
2023-05-15T00:01:32.562Z,6.82
2023-05-15T00:03:59.383Z,8.07
2023-05-15T00:06:26.376Z,6.30
2023-05-15T00:08:53.309Z,6.57
2023-05-15T00:11:21.395Z,6.85
2023-05-15T00:13:48.115Z,5.72
2023-05-15T00:16:14.977Z,7.07
2023-05-15T00:18:41.841Z,9.23
2023-05-15T00:21:09.077Z,7.32
2023-05-15T00:23:35.824Z,6.47
2023-05-15T00:26:03.071Z,5.53
2023-05-15T00:28:29.856Z,9.32
2023-05-15T00:30:56.839Z,6.35
2023-05-15T00:33:23.654Z,5.57
2023-05-15T00:35:51.062Z,7.47
2023-05-15T00:38:17.820Z,6.50
2023-05-15T00:40:45.850Z,5.68
2023-05-15T00:43:13.079Z,11.30
2023-05-15T00:45:41.455Z,5.85
2023-05-15T00:48:10.079Z,7.38
2023-05-15T00:50:38.250Z,7.57
2023-05-15T00:53:06.094Z,10.35
2023-05-15T00:55:34.081Z,5.68
2023-05-15T00:58:02.344Z,5.78
2023-05-15T01:00:32.857Z,5.38
2023-05-15T01:03:00.042Z,5.32
2023-05-15T01:05:27.426Z,6.35
2023-05-15T01:08:38.449Z,7.40
2023-05-15T01:11:07.723Z,7.50
2023-05-15T01:13:34.799Z,6.40
2023-05-15T01:16:01.698Z,6.53
2023-05-15T01:18:32.595Z,5.88
2023-05-15T01:21:05.288Z,5.88
2023-05-15T01:24:03.398Z,6.82
2023-05-15T01:26:58.179Z,6.72
2023-05-15T01:29:30.703Z,6.05
2023-05-15T01:32:03.164Z,7.75
2023-05-15T01:34:39.425Z,6.30
2023-05-15T01:37:08.069Z,6.70
2023-05-15T01:39:36.208Z,7.43
2023-05-15T01:42:08.345Z,8.80
2023-05-15T01:44:38.193Z,6.75
2023-05-15T01:47:12.220Z,7.80
2023-05-15T01:49:40.604Z,6.75
2023-05-15T01:52:13.773Z,8.20
2023-05-15T01:54:41.962Z,7.15
2023-05-15T01:57:10.409Z,6.50
2023-05-15T01:59:37.418Z,6.53
2023-05-15T02:02:07.995Z,8.57
2023-05-15T02:04:36.332Z,8.73
2023-05-15T02:07:04.457Z,8.60
2023-05-15T02:09:32.627Z,7.72
2023-05-15T02:12:01.491Z,6.20
2023-05-15T02:14:32.216Z,7.40
2023-05-15T02:16:59.068Z,10.48
2023-05-15T02:19:25.981Z,8.95
2023-05-15T02:21:52.854Z,7.60
2023-05-15T02:24:19.567Z,9.57
2023-05-15T02:27:00.034Z,8.65
2023-05-15T02:29:51.376Z,8.15
2023-05-15T02:32:36.761Z,7.97
2023-05-15T02:35:26.663Z,11.63
2023-05-15T02:37:56.621Z,8.63
2023-05-15T02:40:24.914Z,8.30
2023-05-15T02:42:54.253Z,11.07
2023-05-15T02:45:24.120Z,8.23
2023-05-15T02:47:51.626Z,12.88
2023-05-15T02:50:18.830Z,10.25
2023-05-15T02:52:45.561Z,10.02
2023-05-15T02:55:12.416Z,11.45
2023-05-15T02:57:39.710Z,9.10
2023-05-15T03:00:09.116Z,13.20
2023-05-15T03:02:36.160Z,9.82
2023-05-15T03:05:03.488Z,13.85
2023-05-15T03:07:30.352Z,11.10
2023-05-15T03:09:57.040Z,11.45
2023-05-15T03:12:23.729Z,10.77
2023-05-15T03:14:50.391Z,14.15
2023-05-15T03:17:17.192Z,11.95
2023-05-15T03:19:44.001Z,11.38
2023-05-15T03:22:10.735Z,12.98
2023-05-15T03:24:37.507Z,13.45
2023-05-15T03:27:05.205Z,13.20
2023-05-15T03:29:31.949Z,13.13
2023-05-15T03:31:58.736Z,12.30
2023-05-15T03:34:25.514Z,14.00
2023-05-15T03:36:52.310Z,11.55
2023-05-15T03:39:19.069Z,12.43
2023-05-15T03:41:45.752Z,11.73
2023-05-15T03:44:12.603Z,13.57
2023-05-15T03:46:39.348Z,13.68
2023-05-15T03:49:06.049Z,13.27
2023-05-15T03:51:32.980Z,16.27
2023-05-15T03:53:59.922Z,18.40
2023-05-15T03:56:26.659Z,13.73
2023-05-15T03:58:53.729Z,16.48
2023-05-15T04:01:20.507Z,15.65
2023-05-15T04:03:47.215Z,19.48
2023-05-15T04:06:14.101Z,15.32
2023-05-15T04:08:41.634Z,14.07
2023-05-15T04:11:11.934Z,17.40
2023-05-15T04:13:38.646Z,19.13
2023-05-15T04:16:06.086Z,15.45
2023-05-15T04:18:32.922Z,17.60
2023-05-15T04:20:59.815Z,20.45
2023-05-15T04:23:26.789Z,18.52
2023-05-15T04:25:53.672Z,18.23
2023-05-15T04:28:23.696Z,17.67
2023-05-15T04:30:50.754Z,14.32
2023-05-15T04:33:17.627Z,15.40
2023-05-15T04:35:44.534Z,15.80
2023-05-15T04:38:11.353Z,16.55
2023-05-15T04:40:38.200Z,20.52
2023-05-15T04:43:05.238Z,17.42
2023-05-15T04:45:31.994Z,18.33
2023-05-15T04:47:58.835Z,22.90
2023-05-15T04:50:25.891Z,22.13
2023-05-15T04:52:52.924Z,19.15
2023-05-15T04:55:19.703Z,19.30
2023-05-15T04:57:47.929Z,18.77
2023-05-15T05:00:15.661Z,17.95
2023-05-15T05:02:45.404Z,15.15
2023-05-15T05:05:14.569Z,15.95
2023-05-15T05:07:42.456Z,16.38
2023-05-15T05:10:09.765Z,13.80
2023-05-15T05:12:36.459Z,13.20
2023-05-15T05:15:03.346Z,15.05
2023-05-15T05:17:31.024Z,17.92
2023-05-15T05:19:57.765Z,16.38
2023-05-15T05:22:24.688Z,19.75
2023-05-15T05:24:51.461Z,13.48
2023-05-15T05:27:18.230Z,17.50
2023-05-15T05:29:45.229Z,14.52
2023-05-15T05:32:12.619Z,15.27
2023-05-15T05:34:39.510Z,14.52
2023-05-15T05:37:06.537Z,13.70
2023-05-15T05:39:33.473Z,11.38
2023-05-15T05:42:00.350Z,12.77
2023-05-15T05:44:27.465Z,14.05
2023-05-15T05:46:54.335Z,14.38
2023-05-15T05:49:21.265Z,12.15
2023-05-15T05:51:48.076Z,11.57
2023-05-15T05:54:18.455Z,14.45
2023-05-15T05:56:46.056Z,11.77
2023-05-15T05:59:12.918Z,12.15
2023-05-15T06:01:40.219Z,13.73
2023-05-15T06:04:07.077Z,13.85
2023-05-15T06:06:34.598Z,13.50
2023-05-15T06:09:01.418Z,13.80
2023-05-15T06:11:28.117Z,15.80
2023-05-15T06:13:54.940Z,16.75
2023-05-15T06:16:21.839Z,14.98
2023-05-15T06:18:48.685Z,12.35
2023-05-15T06:21:15.506Z,11.57
2023-05-15T06:23:42.221Z,13.60
2023-05-15T06:26:09.117Z,11.88
2023-05-15T06:28:36.000Z,12.75
2023-05-15T06:31:02.941Z,11.95
2023-05-15T06:33:29.795Z,9.05
2023-05-15T06:35:56.616Z,10.52
2023-05-15T06:38:23.373Z,9.05
2023-05-15T06:40:50.219Z,10.63
2023-05-15T06:43:16.968Z,11.07
2023-05-15T06:45:43.698Z,10.02
2023-05-15T06:48:10.615Z,9.63
2023-05-15T06:50:37.494Z,10.73
2023-05-15T06:53:04.249Z,9.40
2023-05-15T06:55:31.241Z,9.43
2023-05-15T06:57:58.030Z,10.32
2023-05-15T07:00:24.857Z,9.40
2023-05-15T07:02:52.001Z,10.10
2023-05-15T07:05:19.032Z,12.45
2023-05-15T07:07:46.000Z,9.65
2023-05-15T07:10:12.905Z,10.00
2023-05-15T07:12:39.718Z,9.95
2023-05-15T07:15:07.229Z,11.82
2023-05-15T07:17:34.387Z,12.15
2023-05-15T07:20:01.542Z,14.05
2023-05-15T07:22:29.315Z,8.75
2023-05-15T07:24:56.562Z,12.13
2023-05-15T07:27:23.522Z,11.50
2023-05-15T07:29:50.411Z,11.27
2023-05-15T07:32:17.161Z,12.35
2023-05-15T07:34:44.158Z,13.27
2023-05-15T07:37:11.187Z,11.25
2023-05-15T07:39:38.047Z,9.68
2023-05-15T07:42:05.085Z,10.93
2023-05-15T07:44:31.982Z,9.68
2023-05-15T07:46:59.146Z,14.32
2023-05-15T07:49:25.860Z,10.63
2023-05-15T07:51:52.582Z,10.45
2023-05-15T07:54:19.350Z,13.43
2023-05-15T07:56:46.134Z,9.27
2023-05-15T07:59:13.021Z,9.35
2023-05-15T08:01:39.715Z,13.90
2023-05-15T08:04:08.917Z,14.60
2023-05-15T08:06:38.240Z,16.13
2023-05-15T08:09:05.137Z,8.90
2023-05-15T08:11:31.917Z,12.77
2023-05-15T08:13:58.818Z,11.32
2023-05-15T08:16:25.754Z,10.13
2023-05-15T08:18:55.809Z,10.70
2023-05-15T08:21:22.496Z,11.88
2023-05-15T08:23:49.524Z,12.18
2023-05-15T08:26:16.228Z,12.98
2023-05-15T08:28:43.005Z,11.95
2023-05-15T08:31:09.778Z,10.35
2023-05-15T08:33:36.635Z,16.75
2023-05-15T08:36:03.549Z,14.32
2023-05-15T08:38:30.531Z,13.85
2023-05-15T08:41:02.497Z,13.73
2023-05-15T08:43:31.913Z,14.60
2023-05-15T08:45:59.808Z,11.00
2023-05-15T08:48:29.823Z,9.82
2023-05-15T08:50:58.659Z,11.15
2023-05-15T08:53:25.932Z,11.43
2023-05-15T08:55:52.790Z,12.55
2023-05-15T08:58:25.791Z,10.93
2023-05-15T09:00:52.805Z,12.00
2023-05-15T09:03:22.868Z,12.60
2023-05-15T09:05:53.055Z,10.98
2023-05-15T09:08:22.801Z,13.02
2023-05-15T09:10:49.850Z,13.23
2023-05-15T09:13:17.540Z,8.70
2023-05-15T09:15:47.665Z,9.52
2023-05-15T09:18:16.308Z,9.55
2023-05-15T09:20:43.477Z,10.20
2023-05-15T09:23:30.724Z,11.57
2023-05-15T09:25:58.358Z,11.95
2023-05-15T09:28:35.040Z,10.23
2023-05-15T09:31:03.718Z,10.15
2023-05-15T09:33:39.904Z,7.93
2023-05-15T09:36:08.210Z,8.88
2023-05-15T09:38:42.952Z,7.97
2023-05-15T09:41:09.933Z,9.80
2023-05-15T09:43:38.898Z,11.30
2023-05-15T09:46:08.350Z,9.88
2023-05-15T09:48:35.889Z,11.27
2023-05-15T09:51:03.090Z,9.57
2023-05-15T09:53:31.834Z,7.43
2023-05-15T09:55:58.778Z,11.13
2023-05-15T09:58:28.102Z,8.68
2023-05-15T10:00:54.870Z,10.50
2023-05-15T10:03:24.579Z,7.40
2023-05-15T10:05:59.872Z,9.20
2023-05-15T10:08:30.917Z,11.98
2023-05-15T10:11:01.173Z,6.35
2023-05-15T10:13:31.242Z,11.73
2023-05-15T10:15:58.799Z,9.93
2023-05-15T10:18:28.885Z,15.43
2023-05-15T10:20:58.038Z,10.88
2023-05-15T10:23:26.038Z,8.48
2023-05-15T10:26:16.023Z,8.43
2023-05-15T10:28:45.341Z,7.13
2023-05-15T10:31:12.897Z,9.48
2023-05-15T10:33:40.539Z,10.82
2023-05-15T10:36:08.351Z,12.23
2023-05-15T10:38:35.983Z,7.68
2023-05-15T10:41:16.605Z,7.35
2023-05-15T10:43:44.609Z,7.78
2023-05-15T10:46:11.824Z,8.93
2023-05-15T10:48:39.243Z,9.32
2023-05-15T10:51:15.060Z,8.75
2023-05-15T10:53:42.660Z,9.52
2023-05-15T10:56:14.797Z,12.57
2023-05-15T10:58:47.283Z,8.95
2023-05-15T11:01:32.341Z,10.75
2023-05-15T11:04:11.245Z,11.05
2023-05-15T11:06:44.014Z,11.80
2023-05-15T11:09:25.861Z,8.93
2023-05-15T11:14:32.572Z,11.90
2023-05-15T11:17:01.023Z,8.23
2023-05-15T11:19:36.760Z,8.23
2023-05-15T11:22:20.759Z,8.32
2023-05-15T11:25:05.587Z,9.00
2023-05-15T11:27:40.345Z,12.18
2023-05-15T11:30:20.813Z,11.40
2023-05-15T11:32:47.665Z,8.30
2023-05-15T11:35:29.035Z,9.30
2023-05-15T11:37:59.858Z,7.70
2023-05-15T11:43:20.267Z,8.02
2023-05-15T11:45:50.160Z,10.77
2023-05-15T11:48:18.216Z,9.70
2023-05-15T11:50:46.252Z,13.07
2023-05-15T11:53:13.704Z,8.55
2023-05-15T11:55:43.244Z,8.85
2023-05-15T11:58:15.505Z,9.13
2023-05-15T12:00:44.048Z,9.10
2023-05-15T12:03:27.501Z,9.07
2023-05-15T12:05:59.092Z,9.90
2023-05-15T12:08:34.282Z,8.15
2023-05-15T12:11:01.958Z,6.88
2023-05-15T12:13:29.240Z,7.93
2023-05-15T12:15:56.926Z,11.23
2023-05-15T12:18:24.441Z,9.15
2023-05-15T12:20:54.859Z,8.50
2023-05-15T12:23:24.442Z,9.93
2023-05-15T12:25:58.661Z,8.73
2023-05-15T12:28:26.664Z,8.02
2023-05-15T12:30:54.191Z,7.82
2023-05-15T12:33:21.345Z,10.70
2023-05-15T12:35:57.436Z,11.75
2023-05-15T12:38:27.089Z,8.55
2023-05-15T12:40:54.667Z,8.02
2023-05-15T12:43:25.059Z,7.85
2023-05-15T12:45:56.397Z,6.43
2023-05-15T12:48:23.756Z,9.70
2023-05-15T12:50:50.551Z,6.93
2023-05-15T12:53:17.631Z,8.18
2023-05-15T12:55:46.556Z,9.75
2023-05-15T12:58:15.396Z,8.80
2023-05-15T13:00:43.314Z,11.07
2023-05-15T13:03:11.231Z,10.77
2023-05-15T13:05:43.062Z,10.68
2023-05-15T13:08:16.421Z,9.52
2023-05-15T13:10:43.283Z,10.23
2023-05-15T13:13:10.061Z,9.00
2023-05-15T13:15:39.246Z,10.05
2023-05-15T13:18:15.171Z,8.60
2023-05-15T13:20:44.008Z,7.40
2023-05-15T13:23:13.405Z,8.57
2023-05-15T13:25:40.586Z,8.23
2023-05-15T13:28:08.314Z,9.35
2023-05-15T13:30:35.805Z,11.00
2023-05-15T13:33:02.826Z,9.07
2023-05-15T13:35:29.907Z,9.30
2023-05-15T13:37:57.060Z,12.98
2023-05-15T13:40:24.578Z,9.57
2023-05-15T13:42:51.522Z,8.02
2023-05-15T13:45:18.490Z,6.60
2023-05-15T13:47:45.462Z,7.75
2023-05-15T13:50:14.469Z,11.00
2023-05-15T13:52:42.470Z,10.02
2023-05-15T13:55:09.915Z,7.32
2023-05-15T13:57:41.088Z,12.18
2023-05-15T14:00:12.589Z,10.00
2023-05-15T14:02:43.836Z,9.60
2023-05-15T14:05:12.343Z,9.68
2023-05-15T14:07:39.344Z,8.65
2023-05-15T14:10:06.778Z,11.43
2023-05-15T14:12:34.059Z,7.35
2023-05-15T14:15:01.209Z,6.80
2023-05-15T14:17:28.675Z,7.57
2023-05-15T14:19:55.766Z,12.18
2023-05-15T14:22:24.831Z,8.98
2023-05-15T14:24:53.503Z,8.23
2023-05-15T14:27:20.353Z,13.48
2023-05-15T14:29:48.957Z,9.80
2023-05-15T14:32:16.860Z,13.48
2023-05-15T14:34:44.348Z,13.60
2023-05-15T14:37:11.432Z,10.27
2023-05-15T14:39:38.230Z,9.73
2023-05-15T14:42:06.306Z,9.43
2023-05-15T14:44:34.090Z,8.25
2023-05-15T14:47:12.573Z,6.53
2023-05-15T14:49:39.744Z,7.95
2023-05-15T14:52:09.205Z,6.93
2023-05-15T14:54:36.630Z,8.43
2023-05-15T14:57:04.008Z,6.30
2023-05-15T14:59:31.037Z,8.73
2023-05-15T15:01:58.159Z,7.55
2023-05-15T15:04:26.932Z,8.45
2023-05-15T15:06:56.819Z,7.20
2023-05-15T15:09:24.183Z,9.93
2023-05-15T15:11:51.389Z,8.10
2023-05-15T15:14:18.320Z,7.43
2023-05-15T15:16:46.318Z,9.40
2023-05-15T15:19:14.161Z,6.97
2023-05-15T15:21:41.520Z,7.18
2023-05-15T15:24:08.323Z,8.05
2023-05-15T15:26:35.256Z,8.23
2023-05-15T15:29:02.063Z,7.97
2023-05-15T15:31:30.232Z,8.05
2023-05-15T15:33:57.843Z,8.45
2023-05-15T15:36:25.365Z,6.68
2023-05-15T15:38:52.309Z,7.65
2023-05-15T15:41:21.568Z,9.23
2023-05-15T15:43:48.780Z,7.32
2023-05-15T15:46:15.669Z,9.10
2023-05-15T15:48:42.497Z,11.13
2023-05-15T15:51:09.283Z,7.93
2023-05-15T15:53:36.069Z,7.97
2023-05-15T15:56:02.795Z,7.93
2023-05-15T15:58:30.082Z,6.47
2023-05-15T16:00:57.974Z,6.72
2023-05-15T16:03:25.109Z,8.68
2023-05-15T16:05:51.965Z,7.10
2023-05-15T16:08:18.797Z,7.38
2023-05-15T16:10:45.730Z,7.10
2023-05-15T16:13:12.611Z,7.35
2023-05-15T16:15:39.348Z,6.18
2023-05-15T16:18:07.006Z,7.38
2023-05-15T16:20:35.263Z,9.20
2023-05-15T16:23:02.318Z,10.02
2023-05-15T16:25:29.173Z,6.82
2023-05-15T16:27:55.934Z,7.45
2023-05-15T16:30:28.255Z,7.45
2023-05-15T16:33:01.163Z,11.95
2023-05-15T16:35:28.122Z,8.23
2023-05-15T16:37:55.302Z,8.68
2023-05-15T16:40:22.091Z,10.13
2023-05-15T16:42:48.823Z,7.50
2023-05-15T16:45:16.384Z,9.98
2023-05-15T16:47:43.196Z,9.02
2023-05-15T16:50:10.776Z,9.35
2023-05-15T16:52:39.523Z,7.78
2023-05-15T16:55:06.723Z,13.38
2023-05-15T16:57:33.492Z,6.60
2023-05-15T17:00:00.227Z,6.90
2023-05-15T17:02:27.132Z,9.20
2023-05-15T17:04:54.086Z,8.38
2023-05-15T17:07:20.968Z,10.32
2023-05-15T17:09:47.794Z,9.55
2023-05-15T17:12:14.581Z,7.97
2023-05-15T17:14:41.406Z,9.93
2023-05-15T17:17:08.305Z,10.00
2023-05-15T17:19:35.218Z,11.13
2023-05-15T17:22:02.149Z,6.82
2023-05-15T17:24:42.237Z,6.82
2023-05-15T17:27:18.371Z,8.77
2023-05-15T17:29:45.517Z,10.20
2023-05-15T17:32:12.464Z,6.65
2023-05-15T17:34:39.346Z,9.05
2023-05-15T17:37:06.085Z,11.20
2023-05-15T17:39:33.110Z,10.93
2023-05-15T17:42:00.170Z,8.65
2023-05-15T17:44:29.716Z,8.48
2023-05-15T17:46:57.545Z,9.13
2023-05-15T17:49:24.703Z,9.70
2023-05-15T17:51:51.676Z,8.73
2023-05-15T17:54:18.678Z,6.47
2023-05-15T17:56:45.692Z,10.68
2023-05-15T17:59:12.626Z,7.40
2023-05-15T18:01:39.640Z,7.63
2023-05-15T18:04:06.557Z,7.65
2023-05-15T18:06:36.269Z,23.92
2023-05-15T18:09:03.559Z,22.65
2023-05-15T18:11:30.474Z,7.47
2023-05-15T18:13:57.380Z,9.90
2023-05-15T18:16:24.516Z,9.73
2023-05-15T18:18:52.266Z,8.48
2023-05-15T18:21:19.472Z,9.00
2023-05-15T18:23:46.337Z,11.20
2023-05-15T18:26:13.275Z,9.80
2023-05-15T18:28:40.261Z,9.38
2023-05-15T18:31:07.149Z,11.13
2023-05-15T18:33:34.399Z,13.05
2023-05-15T18:36:01.474Z,12.20
2023-05-15T18:38:28.569Z,13.85
2023-05-15T18:40:55.344Z,11.52
2023-05-15T18:43:22.114Z,12.70
2023-05-15T18:45:49.008Z,10.10
2023-05-15T18:48:17.248Z,12.80
2023-05-15T18:50:44.064Z,12.75
2023-05-15T18:53:10.988Z,9.98
2023-05-15T18:55:38.966Z,13.50
2023-05-15T18:58:06.018Z,16.55
2023-05-15T19:00:38.929Z,9.80
2023-05-15T19:03:08.525Z,8.88
2023-05-15T19:05:35.690Z,10.52
2023-05-15T19:08:03.104Z,12.98
2023-05-15T19:10:30.577Z,11.50
2023-05-15T19:12:58.095Z,11.75
2023-05-15T19:15:25.272Z,10.60
2023-05-15T19:17:52.393Z,8.60
2023-05-15T19:20:19.521Z,9.57
2023-05-15T19:22:46.538Z,11.13
2023-05-15T19:25:13.391Z,10.63
2023-05-15T19:27:40.379Z,9.95
2023-05-15T19:30:08.418Z,10.07
2023-05-15T19:32:35.332Z,10.85
2023-05-15T19:35:02.564Z,9.93
2023-05-15T19:37:29.599Z,15.48
2023-05-15T19:39:57.130Z,11.73
2023-05-15T19:42:23.959Z,12.93
2023-05-15T19:44:50.775Z,10.43
2023-05-15T19:47:17.501Z,15.00
2023-05-15T19:49:44.377Z,12.32
2023-05-15T19:52:11.168Z,11.55
2023-05-15T19:54:38.072Z,10.93
2023-05-15T19:57:04.956Z,9.23
2023-05-15T19:59:31.812Z,10.02
2023-05-15T20:01:58.617Z,13.52
2023-05-15T20:04:25.966Z,12.63
2023-05-15T20:06:53.290Z,13.23
2023-05-15T20:09:20.428Z,10.48
2023-05-15T20:11:47.122Z,11.13
2023-05-15T20:14:14.544Z,11.82
2023-05-15T20:16:41.364Z,9.68
2023-05-15T20:19:11.034Z,10.85
2023-05-15T20:21:38.966Z,10.25
2023-05-15T20:24:06.924Z,10.70
2023-05-15T20:26:35.978Z,9.85
2023-05-15T20:29:03.512Z,10.68
2023-05-15T20:31:30.370Z,12.63
2023-05-15T20:33:57.316Z,12.70
2023-05-15T20:36:25.598Z,11.10
2023-05-15T20:38:52.825Z,12.85
2023-05-15T20:41:20.358Z,10.82
2023-05-15T20:43:49.566Z,9.82
2023-05-15T20:46:17.161Z,10.07
2023-05-15T20:48:44.139Z,10.65
2023-05-15T20:51:11.087Z,12.20
2023-05-15T20:53:37.920Z,10.77
2023-05-15T20:56:04.785Z,15.27
2023-05-15T20:58:31.619Z,11.93
2023-05-15T21:01:00.971Z,10.95
2023-05-15T21:03:29.131Z,11.45
2023-05-15T21:05:57.560Z,10.00
2023-05-15T21:08:24.510Z,11.32
2023-05-15T21:10:53.142Z,10.93
2023-05-15T21:13:19.904Z,12.68
2023-05-15T21:15:47.074Z,15.98
2023-05-15T21:18:13.977Z,15.68
2023-05-15T21:20:41.702Z,11.55
2023-05-15T21:23:08.476Z,12.48
2023-05-15T21:25:35.418Z,13.60
2023-05-15T21:28:02.160Z,17.02
2023-05-15T21:30:28.957Z,14.75
2023-05-15T21:32:55.792Z,14.25
2023-05-15T21:35:22.604Z,13.13
2023-05-15T21:37:49.327Z,14.45
2023-05-15T21:40:16.153Z,12.02
2023-05-15T21:42:43.494Z,15.65
2023-05-15T21:45:10.899Z,14.35
2023-05-15T21:47:37.811Z,14.75
2023-05-15T21:50:06.061Z,15.32
2023-05-15T21:52:32.921Z,14.25
2023-05-15T21:54:59.633Z,16.00
2023-05-15T21:57:26.401Z,14.50
2023-05-15T21:59:53.073Z,13.40
2023-05-15T22:02:19.867Z,14.60
2023-05-15T22:04:46.736Z,16.30
2023-05-15T22:07:14.931Z,15.93
2023-05-15T22:09:43.790Z,16.98
2023-05-15T22:12:10.624Z,16.60
2023-05-15T22:14:39.615Z,14.77
2023-05-15T22:17:11.095Z,18.65
2023-05-15T22:19:37.910Z,17.48
2023-05-15T22:22:04.933Z,18.10
2023-05-15T22:24:32.459Z,18.60
2023-05-15T22:26:59.654Z,21.90
2023-05-15T22:29:26.782Z,20.80
2023-05-15T22:31:53.532Z,22.80
2023-05-15T22:34:20.310Z,19.00
2023-05-15T22:36:47.087Z,21.17
2023-05-15T22:39:13.855Z,21.83
2023-05-15T22:41:40.763Z,18.08
2023-05-15T22:44:07.427Z,21.85
2023-05-15T22:46:34.226Z,22.30
2023-05-15T22:49:01.526Z,22.75
2023-05-15T22:51:29.480Z,20.23
2023-05-15T22:53:56.213Z,21.15
2023-05-15T22:56:22.940Z,22.05
2023-05-15T22:58:49.703Z,21.08
2023-05-15T23:01:16.531Z,21.63
2023-05-15T23:03:43.295Z,23.25
2023-05-15T23:06:10.595Z,23.65
2023-05-15T23:08:37.329Z,23.38
2023-05-15T23:11:04.278Z,24.25
2023-05-15T23:13:31.098Z,24.02
2023-05-15T23:15:57.900Z,25.42
2023-05-15T23:18:25.113Z,25.73
2023-05-15T23:20:52.343Z,25.20
2023-05-15T23:23:19.527Z,27.20
2023-05-15T23:25:46.303Z,27.85
2023-05-15T23:28:13.135Z,27.85
2023-05-15T23:30:39.931Z,21.67
2023-05-15T23:33:06.701Z,26.30
2023-05-15T23:35:33.461Z,18.48
2023-05-15T23:38:00.321Z,19.00
2023-05-15T23:40:27.244Z,19.75
2023-05-15T23:42:54.266Z,18.00
2023-05-15T23:45:21.030Z,17.27
2023-05-15T23:47:47.996Z,17.48
2023-05-15T23:50:14.795Z,17.13
2023-05-15T23:52:41.532Z,14.23
2023-05-15T23:55:08.715Z,15.02
2023-05-15T23:57:35.515Z,18.38
